Time;durP1;ratioP1;P1;durP2;ratioP2;P2;SDS_P1;SDS_P2;PMS_P1;PMS_P2;Temp;Humidity;BMP_temperature;BMP_pressure;BME280_temperature;BME280_humidity;BME280_pressure;Samples;Min_cycle;Max_cycle;Signal;HPM_P1;HPM_P2
2022/12/06 00:01:10;;;;;;;15.15;11.13;;;6.90;99.90;;;;;;5133632;28;20532;-60
2022/12/06 00:03:36;;;;;;;14.18;11.18;;;7.00;99.90;;;;;;5133480;28;20169;-60
2022/12/06 00:06:04;;;;;;;15.13;11.20;;;7.10;99.90;;;;;;5133576;28;20216;-60
2022/12/06 00:08:30;;;;;;;14.73;11.77;;;7.20;99.90;;;;;;5133562;28;20710;-60
2022/12/06 00:11:07;;;;;;;12.43;11.10;;;7.40;99.90;;;;;;5134177;27;20168;-60
2022/12/06 00:13:33;;;;;;;12.40;11.07;;;7.40;99.90;;;;;;5137555;27;20174;-60
2022/12/06 01:25:21;;;;;;;14.00;12.27;;;7.30;99.90;;;;;;5401495;22;20334;-60
2022/12/06 01:27:47;;;;;;;13.52;11.93;;;7.40;99.90;;;;;;5074835;28;20205;-61
2022/12/06 01:30:13;;;;;;;15.35;12.68;;;7.30;99.90;;;;;;5074584;28;20202;-60
2022/12/06 01:32:38;;;;;;;13.60;12.13;;;7.20;99.90;;;;;;5073596;28;20182;-60
2022/12/06 01:35:04;;;;;;;13.38;11.65;;;7.10;99.90;;;;;;5074763;28;20231;-60
2022/12/06 01:37:30;;;;;;;13.18;11.40;;;7.00;99.90;;;;;;5074501;28;20617;-60
2022/12/06 01:39:56;;;;;;;14.10;11.68;;;6.80;99.90;;;;;;5074514;28;20229;-60
2022/12/06 01:42:21;;;;;;;13.07;11.68;;;6.80;99.90;;;;;;5074498;28;20193;-60
2022/12/06 01:44:55;;;;;;;14.40;11.85;;;6.80;99.90;;;;;;5074364;28;20204;-60
2022/12/06 01:47:29;;;;;;;15.43;12.57;;;7.00;99.90;;;;;;5074523;28;20170;-60
2022/12/06 01:50:03;;;;;;;15.00;11.93;;;7.20;99.90;;;;;;5074171;28;20642;-60
2022/12/06 01:52:54;;;;;;;15.38;12.60;;;7.30;99.90;;;;;;5074333;28;20224;-60
2022/12/06 01:55:23;;;;;;;15.45;12.00;;;7.40;99.90;;;;;;5074458;28;20651;-60
2022/12/06 01:57:51;;;;;;;14.50;11.95;;;7.20;99.90;;;;;;5074154;28;20631;-60
2022/12/06 02:00:17;;;;;;;16.25;12.25;;;7.30;99.90;;;;;;5073961;28;20284;-60
2022/12/06 02:02:44;;;;;;;14.00;12.32;;;7.30;99.90;;;;;;5074061;28;20182;-60
2022/12/06 02:05:11;;;;;;;15.05;12.82;;;7.30;99.90;;;;;;5074031;28;20185;-60
2022/12/06 02:07:38;;;;;;;14.63;11.68;;;7.40;99.90;;;;;;5073924;28;20197;-60
2022/12/06 02:10:04;;;;;;;15.10;12.00;;;7.40;99.90;;;;;;5073825;28;20535;-60
2022/12/06 02:12:30;;;;;;;14.48;12.55;;;7.30;99.90;;;;;;5074006;28;20178;-60
2022/12/06 02:14:56;;;;;;;16.33;13.10;;;7.20;99.90;;;;;;5073815;28;20661;-60
2022/12/06 02:17:44;;;;;;;14.75;12.00;;;7.30;99.90;;;;;;5073918;28;20215;-60
2022/12/06 02:20:45;;;;;;;14.65;11.65;;;7.40;99.90;;;;;;5073694;28;20186;-60
2022/12/06 02:23:32;;;;;;;15.98;11.50;;;7.30;99.90;;;;;;5041131;28;20523;-60
2022/12/06 02:26:23;;;;;;;14.13;12.27;;;7.30;99.90;;;;;;5073635;28;20198;-60
2022/12/06 02:29:14;;;;;;;14.77;12.50;;;7.10;99.90;;;;;;5073961;28;20519;-60
2022/12/06 02:31:56;;;;;;;14.52;13.02;;;7.10;99.90;;;;;;5073606;28;20173;-60
2022/12/06 02:34:39;;;;;;;14.60;12.13;;;6.80;99.90;;;;;;5071707;28;20499;-60
2022/12/06 02:37:23;;;;;;;15.13;12.18;;;7.00;99.90;;;;;;5073799;28;20179;-60
2022/12/06 02:39:58;;;;;;;13.50;11.40;;;6.80;99.90;;;;;;5073576;28;20650;-60
2022/12/06 02:42:32;;;;;;;15.55;12.02;;;6.80;99.90;;;;;;5073458;28;20174;-60
2022/12/06 02:45:08;;;;;;;15.68;11.93;;;6.70;99.90;;;;;;5073453;28;20272;-60
2022/12/06 02:47:40;;;;;;;14.38;10.60;;;6.50;99.90;;;;;;5072506;28;20178;-60
2022/12/06 02:50:12;;;;;;;14.75;11.52;;;6.70;99.90;;;;;;5073470;28;20244;-60
2022/12/06 02:52:43;;;;;;;15.48;12.07;;;6.50;99.90;;;;;;5073511;28;20250;-60
2022/12/06 02:55:10;;;;;;;13.85;12.15;;;6.60;99.90;;;;;;5073582;28;20189;-60
2022/12/06 02:57:48;;;;;;;13.48;11.77;;;6.90;99.90;;;;;;5073188;28;20170;-60
2022/12/06 03:00:34;;;;;;;14.23;9.48;;;6.90;99.90;;;;;;5073423;28;20197;-60
2022/12/06 03:03:11;;;;;;;15.02;9.82;;;6.70;99.90;;;;;;5073361;28;20169;-60
2022/12/06 03:05:50;;;;;;;13.77;8.52;;;6.70;99.90;;;;;;5073088;28;20530;-60
2022/12/06 03:08:46;;;;;;;14.68;11.40;;;6.80;99.90;;;;;;5073000;28;20192;-60
2022/12/06 03:11:12;;;;;;;18.08;12.23;;;7.00;99.90;;;;;;5041629;28;20563;-61
2022/12/06 03:13:47;;;;;;;13.98;8.85;;;7.00;99.90;;;;;;5073144;28;20178;-61
2022/12/06 03:16:44;;;;;;;11.55;8.68;;;7.10;99.90;;;;;;5073038;28;20544;-60
2022/12/06 03:19:24;;;;;;;14.10;11.73;;;7.40;99.90;;;;;;5068504;28;20639;-61
2022/12/06 03:22:07;;;;;;;15.35;12.30;;;7.30;99.90;;;;;;5073004;28;20182;-61
2022/12/06 03:24:36;;;;;;;15.25;12.40;;;7.20;99.90;;;;;;5073106;28;20609;-60
2022/12/06 03:27:08;;;;;;;14.35;11.93;;;7.30;99.90;;;;;;5072967;28;20209;-60
2022/12/06 03:29:39;;;;;;;16.67;12.43;;;7.20;99.90;;;;;;5073147;28;20261;-60
2022/12/06 03:32:08;;;;;;;15.30;11.52;;;7.00;99.90;;;;;;5073045;28;20178;-61
2022/12/06 03:34:43;;;;;;;17.65;12.75;;;7.10;99.90;;;;;;5072978;28;20575;-60
2022/12/06 03:37:13;;;;;;;13.60;8.30;;;7.10;99.90;;;;;;5072960;28;20653;-60
2022/12/06 03:40:24;;;;;;;14.70;9.18;;;7.20;99.90;;;;;;5073125;28;20198;-60
2022/12/06 03:42:50;;;;;;;12.45;8.68;;;7.20;99.90;;;;;;5066026;28;20194;-60
2022/12/06 03:45:17;;;;;;;12.25;8.38;;;7.20;99.90;;;;;;5072789;28;20301;-60
2022/12/06 03:47:56;;;;;;;14.52;8.75;;;7.30;99.90;;;;;;5076131;28;20196;-60
2022/12/06 03:50:37;;;;;;;15.55;11.65;;;7.10;99.90;;;;;;5076702;28;20173;-60
2022/12/06 03:53:03;;;;;;;13.68;11.10;;;7.10;99.90;;;;;;5076635;28;20176;-60
2022/12/06 03:55:32;;;;;;;15.20;11.50;;;7.10;99.90;;;;;;5076343;28;20290;-60
2022/12/06 03:58:01;;;;;;;16.42;12.20;;;7.10;99.90;;;;;;5076323;28;20249;-60
2022/12/06 04:00:26;;;;;;;16.70;12.02;;;7.00;99.90;;;;;;5076584;28;20181;-61
2022/12/06 04:02:52;;;;;;;15.35;11.85;;;7.00;99.90;;;;;;5076810;28;20499;-60
2022/12/06 04:05:18;;;;;;;16.75;11.57;;;7.00;99.90;;;;;;5075243;28;20206;-60
2022/12/06 04:07:43;;;;;;;15.55;11.93;;;7.10;99.90;;;;;;5076335;28;20653;-60
2022/12/06 04:10:09;;;;;;;15.68;11.63;;;7.00;99.90;;;;;;5076086;28;20178;-60
2022/12/06 04:15:20;;;;;;;13.82;11.35;;;7.00;99.90;;;;;;5076296;28;20257;-60
2022/12/06 04:23:02;;;;;;;15.27;11.43;;;7.60;99.90;;;;;;5076452;28;20700;-60
2022/12/06 04:23:18;;;;;;;14.52;11.23;;;7.70;99.90;;;;;;5075927;28;20206;-61
2022/12/06 04:25:45;;;;;;;14.43;12.00;;;7.70;99.90;;;;;;5075939;28;20273;-60
2022/12/06 04:39:08;;;;;;;14.45;10.45;;;7.30;99.90;;;;;;5075777;28;20216;-60
2022/12/06 04:44:17;;;;;;;14.55;11.25;;;7.20;99.90;;;;;;5075677;28;20193;-60
2022/12/06 04:46:43;;;;;;;16.55;10.95;;;7.00;99.90;;;;;;5075701;28;20171;-60
2022/12/06 04:49:08;;;;;;;15.05;10.18;;;6.80;99.90;;;;;;5075490;28;20186;-60
2022/12/06 04:51:34;;;;;;;14.32;10.80;;;6.90;99.90;;;;;;5075553;28;20202;-60
2022/12/06 04:54:00;;;;;;;14.95;11.02;;;6.90;99.90;;;;;;5075304;28;20228;-60
2022/12/06 04:56:26;;;;;;;15.82;10.85;;;6.70;99.90;;;;;;5057552;28;20182;-60
2022/12/06 04:58:51;;;;;;;14.80;10.77;;;6.50;99.90;;;;;;5074590;28;20626;-61
2022/12/06 05:01:17;;;;;;;15.18;10.73;;;6.40;99.90;;;;;;5075482;28;20189;-61
2022/12/06 05:03:43;;;;;;;16.70;11.40;;;6.30;99.90;;;;;;5075372;28;20313;-60
2022/12/06 05:06:09;;;;;;;15.63;8.43;;;6.30;99.90;;;;;;5075191;28;20530;-60
2022/12/06 05:08:34;;;;;;;14.10;8.52;;;6.20;99.90;;;;;;5075170;28;20182;-60
2022/12/06 05:11:00;;;;;;;14.25;8.38;;;6.30;99.90;;;;;;5073814;28;20640;-60
2022/12/06 05:13:26;;;;;;;10.82;8.57;;;6.30;99.90;;;;;;5075234;28;20221;-60
2022/12/06 05:16:03;;;;;;;14.93;8.15;;;6.30;99.90;;;;;;5073869;28;20326;-60
2022/12/06 05:18:30;;;;;;;15.68;8.38;;;6.40;99.90;;;;;;5075022;28;20194;-60
2022/12/06 05:21:13;;;;;;;16.33;8.20;;;6.30;99.90;;;;;;5074952;28;20171;-60
2022/12/06 05:23:39;;;;;;;14.50;7.70;;;6.30;99.90;;;;;;5074751;28;20174;-60
2022/12/06 05:26:09;;;;;;;13.65;7.85;;;6.30;99.90;;;;;;5075341;28;20519;-60
2022/12/06 05:28:34;;;;;;;17.48;7.60;;;6.40;99.90;;;;;;5074867;28;20647;-60
2022/12/06 05:31:00;;;;;;;11.80;7.78;;;6.40;99.90;;;;;;5074751;28;20171;-60
2022/12/06 05:33:26;;;;;;;12.15;7.55;;;6.30;99.90;;;;;;5074694;28;20189;-60
2022/12/06 05:35:52;;;;;;;13.25;7.32;;;6.70;99.90;;;;;;5074510;28;20535;-60
2022/12/06 05:38:19;;;;;;;15.88;9.40;;;6.70;99.90;;;;;;5074659;28;20547;-60
2022/12/06 05:40:46;;;;;;;13.70;9.90;;;6.90;99.90;;;;;;5074665;28;20177;-60
2022/12/06 05:43:12;;;;;;;14.70;10.80;;;7.10;99.90;;;;;;5074590;28;20244;-60
2022/12/06 05:45:39;;;;;;;12.57;6.80;;;7.20;99.90;;;;;;5074479;28;20177;-60
2022/12/06 05:48:05;;;;;;;15.70;9.65;;;7.20;99.90;;;;;;5074356;28;20198;-60
2022/12/06 05:50:31;;;;;;;17.60;7.85;;;7.20;99.90;;;;;;5074201;28;20631;-60
2022/12/06 05:52:58;;;;;;;12.70;7.30;;;7.20;99.90;;;;;;5074509;28;20180;-60
2022/12/06 05:55:25;;;;;;;13.18;8.10;;;7.20;99.90;;;;;;5074401;28;20268;-60
2022/12/06 05:57:51;;;;;;;14.50;7.78;;;7.10;99.90;;;;;;5074245;28;20185;-61
2022/12/06 06:00:18;;;;;;;15.82;7.13;;;7.10;99.90;;;;;;5074205;28;20264;-60
2022/12/06 06:02:44;;;;;;;13.85;6.97;;;7.00;99.90;;;;;;5073985;28;20169;-60
2022/12/06 06:05:10;;;;;;;13.38;10.35;;;7.00;99.90;;;;;;5074023;28;20174;-60
2022/12/06 06:07:36;;;;;;;14.90;6.97;;;6.80;99.90;;;;;;5073956;28;20538;-60
2022/12/06 06:10:03;;;;;;;11.65;6.50;;;7.00;99.90;;;;;;5073933;28;20177;-60
2022/12/06 06:12:28;;;;;;;13.52;6.85;;;7.00;99.90;;;;;;5073922;28;20178;-60
2022/12/06 06:14:54;;;;;;;12.85;7.07;;;7.00;99.90;;;;;;5074540;28;20514;-60
2022/12/06 06:17:20;;;;;;;12.70;6.90;;;6.90;99.90;;;;;;5073793;28;20259;-60
2022/12/06 06:19:45;;;;;;;15.55;8.10;;;6.60;99.90;;;;;;5073649;28;20749;-60
2022/12/06 06:22:11;;;;;;;12.82;7.20;;;6.60;99.90;;;;;;5072466;28;20639;-60
2022/12/06 06:24:38;;;;;;;16.70;7.63;;;6.50;99.90;;;;;;5073846;28;20219;-60
2022/12/06 06:27:04;;;;;;;14.73;7.88;;;6.30;99.90;;;;;;5073528;28;20181;-60
2022/12/06 06:29:30;;;;;;;13.27;7.97;;;6.20;99.90;;;;;;5073614;28;20182;-60
2022/12/06 06:31:57;;;;;;;13.48;7.38;;;6.10;99.90;;;;;;5073547;28;20173;-60
2022/12/06 06:34:23;;;;;;;11.82;7.25;;;5.90;99.90;;;;;;5073386;28;20235;-60
2022/12/06 06:36:49;;;;;;;11.50;6.72;;;5.90;99.90;;;;;;5073649;28;20264;-60
2022/12/06 06:39:14;;;;;;;16.27;7.80;;;5.80;99.90;;;;;;5072133;28;20303;-60
2022/12/06 06:41:40;;;;;;;13.68;7.93;;;5.90;99.90;;;;;;5073489;28;20178;-60
2022/12/06 06:44:06;;;;;;;14.57;7.80;;;6.10;99.90;;;;;;5073301;28;20188;-60
2022/12/06 06:46:31;;;;;;;13.57;7.63;;;6.30;99.90;;;;;;5073276;28;20196;-60
2022/12/06 06:48:57;;;;;;;11.85;7.43;;;6.40;99.90;;;;;;5073223;28;20181;-60
2022/12/06 06:51:23;;;;;;;19.70;8.32;;;6.60;99.90;;;;;;5073448;28;20182;-60
2022/12/06 06:53:48;;;;;;;14.60;7.75;;;6.60;99.90;;;;;;5073490;28;20174;-60
2022/12/06 06:56:14;;;;;;;18.70;7.90;;;6.60;99.90;;;;;;5073201;28;20573;-60
2022/12/06 06:58:40;;;;;;;19.92;8.52;;;6.60;99.90;;;;;;5073108;28;20263;-60
2022/12/06 07:01:07;;;;;;;15.18;7.47;;;6.50;99.90;;;;;;5073243;28;20654;-60
2022/12/06 07:03:34;;;;;;;17.20;7.90;;;6.60;99.90;;;;;;5073098;28;20170;-60
2022/12/06 07:06:03;;;;;;;14.77;7.38;;;6.60;99.90;;;;;;5073385;28;20174;-60
2022/12/06 07:08:30;;;;;;;16.95;7.85;;;6.40;99.90;;;;;;5073265;28;20178;-60
2022/12/06 07:10:56;;;;;;;13.68;7.43;;;6.40;99.90;;;;;;5073225;28;20671;-60
2022/12/06 07:13:23;;;;;;;15.00;8.05;;;6.60;99.90;;;;;;5073126;28;20177;-60
2022/12/06 07:15:49;;;;;;;14.40;7.60;;;6.70;99.90;;;;;;5072956;28;20634;-60
2022/12/06 07:18:16;;;;;;;15.07;8.27;;;6.70;99.90;;;;;;5072802;28;20217;-60
2022/12/06 07:20:43;;;;;;;12.23;7.93;;;6.80;99.90;;;;;;5073450;28;20224;-60
2022/12/06 07:23:08;;;;;;;13.10;8.30;;;6.80;99.90;;;;;;5077203;28;20515;-60
2022/12/06 07:25:34;;;;;;;24.20;12.70;;;6.90;99.90;;;;;;5076952;28;20205;-60
2022/12/06 07:28:00;;;;;;;18.13;9.93;;;6.90;99.90;;;;;;5075815;28;20193;-60
2022/12/06 07:30:28;;;;;;;19.70;9.77;;;6.90;99.90;;;;;;5076928;28;20201;-60
2022/12/06 07:32:54;;;;;;;16.92;10.55;;;7.00;99.90;;;;;;5076806;28;20172;-60
2022/12/06 07:35:20;;;;;;;20.95;11.88;;;6.90;99.90;;;;;;5077096;28;20177;-60
2022/12/06 07:37:46;;;;;;;18.75;11.73;;;7.00;99.90;;;;;;5076873;28;20170;-61
2022/12/06 07:40:14;;;;;;;16.88;10.65;;;7.10;99.90;;;;;;5077183;28;20796;-60
2022/12/06 07:45:25;;;;;;;13.43;8.85;;;7.10;99.90;;;;;;5055388;28;20198;-60
2022/12/06 07:47:51;;;;;;;15.75;8.65;;;7.10;99.90;;;;;;5075628;28;20184;-60
2022/12/06 07:50:19;;;;;;;17.75;9.27;;;6.90;99.90;;;;;;5076616;28;20541;-60
2022/12/06 07:52:47;;;;;;;18.10;9.20;;;6.80;99.90;;;;;;5076681;28;20198;-60
2022/12/06 07:55:14;;;;;;;13.93;8.77;;;6.60;99.90;;;;;;5075523;28;20709;-60
2022/12/06 07:57:40;;;;;;;17.40;8.43;;;6.50;99.90;;;;;;5076324;28;20257;-60
2022/12/06 08:00:09;;;;;;;14.35;8.52;;;6.30;99.90;;;;;;5076455;28;20202;-60
2022/12/06 08:02:34;;;;;;;15.55;8.75;;;6.20;99.90;;;;;;5076516;28;20231;-60
2022/12/06 08:05:00;;;;;;;15.35;8.52;;;6.40;99.90;;;;;;5076448;28;20186;-60
2022/12/06 08:07:26;;;;;;;15.80;8.50;;;6.40;99.90;;;;;;5076268;28;20178;-60
2022/12/06 08:09:53;;;;;;;12.45;8.65;;;6.40;99.90;;;;;;5076119;28;20193;-60
2022/12/06 08:12:20;;;;;;;16.17;8.10;;;6.60;99.90;;;;;;5076064;28;20182;-60
2022/12/06 08:14:46;;;;;;;13.90;8.23;;;6.50;99.90;;;;;;5076147;28;20611;-60
2022/12/06 08:17:12;;;;;;;15.07;7.90;;;6.50;99.90;;;;;;5076091;28;20186;-60
2022/12/06 08:19:38;;;;;;;13.57;7.93;;;6.40;99.90;;;;;;5076059;28;20221;-60
2022/12/06 08:22:04;;;;;;;15.30;7.57;;;6.40;99.90;;;;;;5076059;28;20174;-60
2022/12/06 08:24:33;;;;;;;12.88;7.72;;;6.30;99.90;;;;;;5076014;28;20208;-60
2022/12/06 08:26:59;;;;;;;17.25;8.82;;;6.50;99.90;;;;;;5075891;28;20311;-60
2022/12/06 08:29:24;;;;;;;12.48;7.72;;;6.50;99.90;;;;;;5075954;28;20649;-60
2022/12/06 08:31:50;;;;;;;14.55;7.93;;;6.60;99.90;;;;;;5075578;28;20184;-60
2022/12/06 08:34:16;;;;;;;11.10;8.07;;;6.60;99.90;;;;;;5074902;28;20181;-60
2022/12/06 08:36:42;;;;;;;12.48;7.65;;;6.60;99.90;;;;;;5075778;28;20182;-60
2022/12/06 08:39:10;;;;;;;15.65;8.48;;;6.60;99.90;;;;;;5075545;28;20205;-60
2022/12/06 08:41:54;;;;;;;15.32;7.63;;;6.60;99.90;;;;;;5075599;28;20181;-60
2022/12/06 08:44:20;;;;;;;14.30;9.68;;;6.90;99.90;;;;;;5075944;28;20208;-60
2022/12/06 08:46:46;;;;;;;14.02;7.38;;;6.80;99.90;;;;;;5075674;28;20206;-60
2022/12/06 08:49:13;;;;;;;14.23;7.60;;;6.80;99.90;;;;;;5075610;28;20174;-60
2022/12/06 08:51:39;;;;;;;12.38;9.00;;;6.70;99.90;;;;;;5075531;28;20185;-60
2022/12/06 08:54:07;;;;;;;17.13;8.27;;;6.80;99.90;;;;;;5075306;28;20178;-60
2022/12/06 08:56:33;;;;;;;14.35;9.98;;;7.30;99.90;;;;;;5075308;28;20186;-60
2022/12/06 08:58:58;;;;;;;14.18;7.50;;;7.00;99.90;;;;;;5075304;28;20210;-60
2022/12/06 09:01:27;;;;;;;13.70;7.85;;;7.20;99.90;;;;;;5075395;28;20177;-60
2022/12/06 09:03:53;;;;;;;10.45;6.78;;;7.30;99.90;;;;;;5075293;28;20178;-60
2022/12/06 09:06:20;;;;;;;14.27;6.45;;;7.30;99.90;;;;;;5075224;28;20178;-60
2022/12/06 09:08:46;;;;;;;11.20;7.32;;;7.40;99.90;;;;;;5075349;28;20238;-60
2022/12/06 09:11:13;;;;;;;15.65;9.10;;;7.80;99.90;;;;;;5075051;28;20503;-60
2022/12/06 09:13:39;;;;;;;11.80;9.18;;;8.00;99.90;;;;;;5075140;28;20311;-60
2022/12/06 09:16:17;;;;;;;11.40;9.18;;;8.20;99.90;;;;;;5075038;28;20261;-60
2022/12/06 09:18:45;;;;;;;12.48;8.85;;;8.10;99.90;;;;;;5074941;28;20669;-60
2022/12/06 09:21:29;;;;;;;11.77;9.63;;;8.30;99.90;;;;;;5075389;28;20206;-60
2022/12/06 09:23:56;;;;;;;13.10;9.07;;;8.40;99.90;;;;;;5075103;28;20176;-60
2022/12/06 09:26:22;;;;;;;13.88;9.25;;;8.50;99.90;;;;;;5074919;28;20242;-60
2022/12/06 09:28:49;;;;;;;12.80;9.20;;;8.60;99.90;;;;;;5074813;28;20185;-60
2022/12/06 09:31:15;;;;;;;11.32;9.00;;;8.60;99.90;;;;;;5074709;28;20710;-60
2022/12/06 09:33:41;;;;;;;13.40;8.98;;;8.70;99.90;;;;;;5074656;28;20184;-60
2022/12/06 09:36:18;;;;;;;12.10;9.38;;;8.10;99.90;;;;;;5074743;28;20177;-61
2022/12/06 09:38:46;;;;;;;11.30;9.50;;;8.10;99.90;;;;;;5074695;28;20200;-60
2022/12/06 09:41:30;;;;;;;12.20;9.10;;;8.20;99.90;;;;;;5074606;28;20171;-60
2022/12/06 09:44:13;;;;;;;11.75;8.55;;;8.30;99.90;;;;;;5074061;28;20223;-60
2022/12/06 09:46:54;;;;;;;11.68;9.55;;;8.30;99.90;;;;;;5074650;28;20493;-60
2022/12/06 09:49:30;;;;;;;14.23;9.07;;;8.10;99.90;;;;;;5074375;28;20181;-60
2022/12/06 09:52:02;;;;;;;11.95;9.68;;;8.10;99.90;;;;;;5074274;28;20174;-60
2022/12/06 09:54:40;;;;;;;11.50;9.52;;;8.20;99.90;;;;;;5074256;28;20232;-60
2022/12/06 09:57:17;;;;;;;11.68;9.80;;;8.20;99.90;;;;;;5074555;28;20195;-61
2022/12/06 09:59:48;;;;;;;11.65;9.27;;;8.30;99.90;;;;;;5074117;28;20281;-60
2022/12/06 10:02:20;;;;;;;13.57;10.05;;;8.30;99.90;;;;;;5074108;28;20187;-60
2022/12/06 10:05:11;;;;;;;11.10;9.30;;;8.30;99.90;;;;;;5073950;28;20623;-60
2022/12/06 10:07:50;;;;;;;10.88;9.05;;;8.40;99.90;;;;;;5074078;28;20208;-60
2022/12/06 10:10:21;;;;;;;11.65;8.90;;;8.30;99.90;;;;;;5074012;28;20236;-60
2022/12/06 10:12:57;;;;;;;11.43;8.45;;;8.00;99.90;;;;;;5073988;28;20205;-60
2022/12/06 10:15:44;;;;;;;9.45;8.15;;;8.00;99.90;;;;;;5073763;28;20172;-60
2022/12/06 10:18:16;;;;;;;9.30;7.18;;;8.10;99.90;;;;;;5073823;28;20170;-60
2022/12/06 10:20:44;;;;;;;12.60;7.75;;;7.70;99.90;;;;;;5073971;28;20174;-60
2022/12/06 10:23:34;;;;;;;9.98;7.32;;;7.80;99.90;;;;;;5073651;28;20182;-60
2022/12/06 10:26:09;;;;;;;9.98;8.15;;;7.90;99.90;;;;;;5073917;28;20186;-60
2022/12/06 10:28:41;;;;;;;13.43;8.25;;;8.20;99.90;;;;;;5073749;28;20253;-60
2022/12/06 10:31:38;;;;;;;12.52;8.05;;;8.30;99.90;;;;;;5073682;28;20178;-60
2022/12/06 10:34:18;;;;;;;11.85;7.50;;;8.50;99.90;;;;;;5073524;28;20166;-60
2022/12/06 10:37:03;;;;;;;10.65;7.57;;;8.60;99.90;;;;;;5073645;28;20170;-60
2022/12/06 10:39:47;;;;;;;11.68;7.57;;;8.60;99.90;;;;;;5073452;28;20195;-60
2022/12/06 10:42:27;;;;;;;10.82;7.70;;;8.70;99.90;;;;;;5073446;28;20178;-60
2022/12/06 10:44:55;;;;;;;9.35;7.47;;;8.80;99.90;;;;;;5073630;28;20580;-60
2022/12/06 10:47:40;;;;;;;10.05;7.45;;;8.80;99.90;;;;;;5073486;28;20171;-60
2022/12/06 10:50:29;;;;;;;7.78;6.80;;;8.90;99.90;;;;;;5072162;28;20201;-60
2022/12/06 10:53:08;;;;;;;9.90;6.97;;;9.00;99.90;;;;;;5073555;28;20159;-60
2022/12/06 10:55:39;;;;;;;9.02;6.35;;;9.00;99.90;;;;;;5072425;28;20180;-60
2022/12/06 10:58:36;;;;;;;8.32;6.35;;;9.10;99.90;;;;;;5073053;28;20277;-60
2022/12/06 11:01:33;;;;;;;8.60;7.32;;;9.10;99.90;;;;;;5073125;28;20573;-61
2022/12/06 11:04:01;;;;;;;7.10;6.13;;;9.10;99.90;;;;;;5070284;28;20185;-60
2022/12/06 11:06:27;;;;;;;8.50;5.93;;;9.10;99.90;;;;;;5073052;28;20208;-61
2022/12/06 11:08:58;;;;;;;6.75;5.50;;;9.10;99.90;;;;;;5073131;28;20223;-60
2022/12/06 11:11:30;;;;;;;6.57;5.30;;;9.20;99.90;;;;;;5073131;28;20204;-60
2022/12/06 11:14:02;;;;;;;8.00;5.30;;;9.20;99.90;;;;;;5073370;28;20215;-60
2022/12/06 11:16:45;;;;;;;5.85;4.80;;;9.20;99.90;;;;;;5071911;28;20174;-60
2022/12/06 11:19:37;;;;;;;7.40;4.70;;;9.30;99.90;;;;;;5073034;28;20202;-60
2022/12/06 11:22:15;;;;;;;9.10;5.10;;;9.30;99.90;;;;;;5072991;28;20654;-61
2022/12/06 11:24:55;;;;;;;7.20;4.40;;;9.30;99.90;;;;;;5073126;28;20198;-61
2022/12/06 11:27:32;;;;;;;5.18;4.40;;;9.40;99.90;;;;;;5073047;28;20718;-60
2022/12/06 11:29:58;;;;;;;6.50;4.30;;;9.40;99.90;;;;;;5073011;28;20208;-60
2022/12/06 11:32:24;;;;;;;10.50;5.30;;;9.40;99.90;;;;;;5073074;28;20175;-60
2022/12/06 11:34:56;;;;;;;5.82;4.28;;;9.40;99.90;;;;;;5072994;28;20257;-60
2022/12/06 11:37:30;;;;;;;6.22;4.05;;;9.30;99.90;;;;;;5072911;28;20610;-60
2022/12/06 11:40:18;;;;;;;5.78;4.25;;;9.40;99.90;;;;;;5072785;28;20284;-60
2022/12/06 11:42:44;;;;;;;5.05;3.75;;;9.40;99.90;;;;;;5072708;28;20178;-60
2022/12/06 11:45:20;;;;;;;5.78;3.92;;;9.50;99.90;;;;;;5071615;28;20261;-61
2022/12/06 11:47:46;;;;;;;4.45;3.63;;;9.50;99.90;;;;;;5072892;28;20179;-61
2022/12/06 11:50:18;;;;;;;4.35;3.17;;;9.50;99.90;;;;;;5072523;28;20252;-61
2022/12/06 11:52:56;;;;;;;4.13;3.30;;;9.50;99.90;;;;;;5072747;28;20228;-60
2022/12/06 11:55:28;;;;;;;5.28;3.65;;;9.40;99.90;;;;;;5072923;28;20651;-60
2022/12/06 11:58:02;;;;;;;5.55;3.67;;;9.00;99.90;;;;;;5072727;28;20179;-60
2022/12/06 12:00:28;;;;;;;6.32;3.50;;;9.00;99.90;;;;;;5072795;28;20187;-61
2022/12/06 12:02:56;;;;;;;5.22;3.83;;;9.20;99.90;;;;;;5072486;28;20261;-61
2022/12/06 12:05:23;;;;;;;5.18;2.92;;;9.40;99.90;;;;;;5072475;28;20163;-60
2022/12/06 12:07:59;;;;;;;3.15;2.85;;;9.40;99.90;;;;;;5074320;28;20170;-60
2022/12/06 12:10:33;;;;;;;3.70;2.60;;;9.50;99.90;;;;;;5076441;28;20171;-60
2022/12/06 12:16:01;;;;;;;4.63;2.40;;;9.40;99.90;;;;;;5076379;28;20228;-61
2022/12/06 12:18:33;;;;;;;2.70;2.00;;;9.30;99.90;;;;;;5076449;28;20263;-60
2022/12/06 12:21:00;;;;;;;3.50;1.90;;;9.40;99.90;;;;;;5076219;28;20438;-61
2022/12/06 12:23:33;;;;;;;5.32;2.58;;;9.60;99.90;;;;;;5075967;28;20166;-61
2022/12/06 12:26:10;;;;;;;4.15;2.10;;;9.70;99.90;;;;;;5075981;28;20587;-60
2022/12/06 12:28:39;;;;;;;3.75;2.35;;;9.40;99.90;;;;;;5075837;28;20196;-60
2022/12/06 12:31:18;;;;;;;6.20;2.58;;;9.50;99.90;;;;;;5076032;28;20182;-61
2022/12/06 12:33:44;;;;;;;3.17;2.50;;;9.70;99.90;;;;;;5076187;28;20174;-61
2022/12/06 12:36:19;;;;;;;6.30;3.40;;;9.80;99.90;;;;;;5075855;28;20220;-60
2022/12/06 12:38:54;;;;;;;4.40;2.58;;;9.90;99.90;;;;;;5075779;28;20270;-60
2022/12/06 12:41:36;;;;;;;4.70;3.00;;;9.90;99.90;;;;;;5075972;28;20170;-60
2022/12/06 12:44:06;;;;;;;4.85;3.10;;;9.90;99.90;;;;;;5075687;28;20170;-61
2022/12/06 12:46:35;;;;;;;4.45;2.50;;;10.20;99.90;;;;;;5075692;28;20182;-60
2022/12/06 12:49:24;;;;;;;4.90;2.80;;;10.30;99.90;;;;;;5075626;28;20175;-61
2022/12/06 12:51:50;;;;;;;5.22;2.97;;;10.60;99.90;;;;;;5075692;28;20389;-61
2022/12/06 12:54:33;;;;;;;3.45;2.65;;;10.80;99.90;;;;;;5075761;28;20627;-61
2022/12/06 12:57:00;;;;;;;4.75;2.13;;;10.70;99.90;;;;;;5074263;28;20723;-61
2022/12/06 12:59:34;;;;;;;3.58;2.00;;;10.50;99.90;;;;;;5075240;28;20613;-61
2022/12/06 13:01:59;;;;;;;4.07;2.00;;;10.10;99.90;;;;;;5075357;28;20183;-60
2022/12/06 13:04:44;;;;;;;3.55;1.60;;;9.90;99.90;;;;;;5075550;28;20181;-60
2022/12/06 13:07:30;;;;;;;4.18;1.83;;;9.60;99.90;;;;;;5075357;28;20236;-60
2022/12/06 13:10:04;;;;;;;3.88;1.88;;;9.20;99.90;;;;;;5075537;28;20261;-61
2022/12/06 13:12:54;;;;;;;6.15;2.08;;;8.90;99.90;;;;;;5075132;28;20556;-61
2022/12/06 13:15:22;;;;;;;3.90;1.80;;;9.10;99.90;;;;;;5067724;28;20186;-60
2022/12/06 13:17:52;;;;;;;2.58;1.73;;;9.40;99.90;;;;;;5075118;28;20624;-60
2022/12/06 13:20:28;;;;;;;3.45;1.70;;;9.00;99.90;;;;;;5074140;28;20206;-60
2022/12/06 13:23:17;;;;;;;3.33;1.50;;;8.90;99.90;;;;;;5074911;28;20619;-61
2022/12/06 13:25:51;;;;;;;2.65;1.42;;;8.70;99.90;;;;;;5074906;28;20183;-60
2022/12/06 13:28:24;;;;;;;4.28;1.70;;;8.70;99.90;;;;;;5074882;28;20170;-61
2022/12/06 13:31:05;;;;;;;3.72;1.90;;;8.60;99.90;;;;;;5074835;28;20178;-60
2022/12/06 13:33:35;;;;;;;4.03;1.95;;;8.60;99.90;;;;;;5074997;28;20567;-60
2022/12/06 13:36:05;;;;;;;4.70;2.17;;;8.90;99.90;;;;;;5074840;28;20201;-60
2022/12/06 13:38:37;;;;;;;4.50;2.92;;;8.80;99.90;;;;;;5074463;28;20213;-60
2022/12/06 13:41:10;;;;;;;3.85;2.67;;;9.00;99.90;;;;;;5074615;28;20638;-60
2022/12/06 13:43:39;;;;;;;3.97;2.80;;;9.30;99.90;;;;;;5074505;28;20627;-60
2022/12/06 13:46:24;;;;;;;5.43;3.00;;;9.60;99.90;;;;;;5074629;28;20179;-61
2022/12/06 13:48:56;;;;;;;6.13;3.30;;;9.80;99.90;;;;;;5074630;28;20174;-60
2022/12/06 13:51:31;;;;;;;4.45;3.13;;;9.90;99.90;;;;;;5074303;28;20202;-60
2022/12/06 13:54:03;;;;;;;3.78;2.55;;;9.80;99.90;;;;;;5074221;28;20565;-60
2022/12/06 13:56:34;;;;;;;4.13;2.72;;;9.50;99.90;;;;;;5074306;28;20175;-60
2022/12/06 13:59:23;;;;;;;3.78;2.60;;;9.80;99.90;;;;;;5074269;28;20202;-60
2022/12/06 14:02:30;;;;;;;5.32;2.97;;;9.80;99.90;;;;;;5074055;28;20202;-60
2022/12/06 14:04:56;;;;;;;6.07;2.90;;;9.70;99.90;;;;;;5073943;28;20174;-60
2022/12/06 14:07:32;;;;;;;6.00;2.95;;;9.80;99.90;;;;;;5072796;28;20181;-60
2022/12/06 14:10:16;;;;;;;5.55;3.45;;;9.20;99.90;;;;;;5074067;28;20228;-60
2022/12/06 14:12:41;;;;;;;7.07;4.05;;;9.30;99.90;;;;;;5073763;28;20174;-62
2022/12/06 14:15:17;;;;;;;7.15;4.05;;;9.60;99.90;;;;;;5074299;28;20181;-60
2022/12/06 14:17:43;;;;;;;4.85;3.03;;;9.70;99.90;;;;;;5074009;28;20592;-60
2022/12/06 14:20:20;;;;;;;11.52;3.78;;;9.80;99.90;;;;;;5073821;28;20233;-60
2022/12/06 14:22:47;;;;;;;10.35;3.45;;;9.90;99.90;;;;;;5073756;28;20718;-62
2022/12/06 14:25:20;;;;;;;5.78;3.60;;;9.90;99.90;;;;;;5073601;28;20228;-60
2022/12/06 14:27:49;;;;;;;8.02;4.10;;;9.90;99.90;;;;;;5073859;28;20198;-61
2022/12/06 14:30:26;;;;;;;6.88;3.85;;;9.80;99.90;;;;;;5073532;28;20265;-60
2022/12/06 14:32:54;;;;;;;7.22;4.18;;;9.70;99.90;;;;;;5073648;28;20173;-60
2022/12/06 14:35:23;;;;;;;7.13;4.53;;;9.70;99.90;;;;;;5074106;28;20210;-61
2022/12/06 14:37:53;;;;;;;10.43;4.47;;;9.70;99.90;;;;;;5073571;28;20170;-61
2022/12/06 14:42:59;;;;;;;7.72;4.65;;;9.70;99.90;;;;;;5073555;28;20211;-60
2022/12/06 14:43:17;;;;;;;6.80;4.55;;;9.70;99.90;;;;;;5073317;28;20194;-61
2022/12/06 14:45:44;;;;;;;7.15;4.53;;;9.60;99.90;;;;;;5073526;28;20636;-61